Time;durP1;ratioP1;P1;durP2;ratioP2;P2;SDS_P1;SDS_P2;PMS_P1;PMS_P2;Temp;Humidity;BMP_temperature;BMP_pressure;BME280_temperature;BME280_humidity;BME280_pressure;Samples;Min_cycle;Max_cycle;Signal;HPM_P1;HPM_P2
2023/05/06 00:00:38;;;;;;;40.55;12.52;;;11.20;99.90;;;;;;5113436;28;20192;-70
2023/05/06 00:03:04;;;;;;;22.88;10.98;;;11.10;99.90;;;;;;5115043;28;20172;-70
2023/05/06 00:05:29;;;;;;;45.83;14.90;;;11.10;99.90;;;;;;5127891;27;20560;-70
2023/05/06 00:07:55;;;;;;;30.25;13.35;;;11.10;99.90;;;;;;5138584;27;20556;-70
2023/05/06 00:10:21;;;;;;;33.35;13.45;;;11.00;99.90;;;;;;5138227;27;20566;-70
2023/05/06 00:12:47;;;;;;;30.67;13.23;;;11.00;99.90;;;;;;5136898;27;20175;-70
2023/05/06 00:15:12;;;;;;;24.85;11.98;;;11.10;99.90;;;;;;5138674;27;20530;-69
2023/05/06 00:17:38;;;;;;;29.40;13.05;;;11.10;99.90;;;;;;5138132;27;20172;-69
2023/05/06 00:20:05;;;;;;;48.60;15.18;;;11.10;99.90;;;;;;5138042;27;20188;-70
2023/05/06 00:22:30;;;;;;;31.98;14.25;;;11.10;99.90;;;;;;5136734;27;20255;-70
2023/05/06 00:24:56;;;;;;;34.88;15.60;;;11.10;99.90;;;;;;5138010;27;20636;-70
2023/05/06 00:27:22;;;;;;;39.05;15.73;;;11.10;99.90;;;;;;5137820;27;20164;-69
2023/05/06 00:29:47;;;;;;;33.00;16.35;;;11.10;99.90;;;;;;5137785;27;20604;-69
2023/05/06 00:32:14;;;;;;;32.53;15.25;;;11.10;99.90;;;;;;5137872;27;20172;-69
2023/05/06 00:34:39;;;;;;;42.88;19.48;;;11.20;99.90;;;;;;5137740;27;20199;-70
2023/05/06 00:37:05;;;;;;;55.58;21.80;;;11.20;99.90;;;;;;5137818;27;20272;-70
2023/05/06 00:39:32;;;;;;;39.80;20.67;;;11.10;99.90;;;;;;5138133;27;20187;-70
2023/05/06 00:42:01;;;;;;;60.80;24.27;;;11.10;99.90;;;;;;5136545;27;20191;-70
2023/05/06 00:44:28;;;;;;;52.65;24.45;;;11.00;99.90;;;;;;5136378;27;20586;-70
2023/05/06 00:46:55;;;;;;;59.47;23.98;;;11.00;99.90;;;;;;5137923;27;20168;-70
2023/05/06 00:49:22;;;;;;;54.80;23.20;;;11.00;99.90;;;;;;5138080;27;20608;-70
2023/05/06 00:51:49;;;;;;;43.67;21.50;;;11.10;99.90;;;;;;5137530;27;20221;-70
2023/05/06 00:54:15;;;;;;;70.70;24.67;;;11.10;99.90;;;;;;5137516;27;20560;-71
2023/05/06 00:56:41;;;;;;;83.78;26.40;;;11.10;99.90;;;;;;5137423;27;20160;-70
2023/05/06 00:59:07;;;;;;;52.97;23.33;;;11.10;99.90;;;;;;5137751;27;20168;-72
2023/05/06 01:01:33;;;;;;;62.78;24.10;;;11.10;99.90;;;;;;5136154;27;20191;-72
2023/05/06 01:03:59;;;;;;;64.20;23.35;;;11.10;99.90;;;;;;5137687;27;20174;-72
2023/05/06 01:06:31;;;;;;;57.78;21.48;;;11.20;99.90;;;;;;5137643;27;20508;-72
2023/05/06 01:09:07;;;;;;;61.78;21.40;;;11.00;99.90;;;;;;5137250;27;20560;-68
2023/05/06 01:11:48;;;;;;;124.53;23.87;;;11.10;99.90;;;;;;5137491;27;20155;-68
2023/05/06 01:14:24;;;;;;;84.30;21.55;;;10.80;99.90;;;;;;5136777;27;20188;-68
2023/05/06 01:16:55;;;;;;;131.82;24.10;;;10.80;99.90;;;;;;5137496;27;20152;-68
2023/05/06 01:19:40;;;;;;;85.33;23.77;;;10.80;99.90;;;;;;5137267;27;20279;-68
2023/05/06 01:22:08;;;;;;;98.07;21.77;;;10.80;99.90;;;;;;5137321;27;20152;-68
2023/05/06 01:24:45;;;;;;;58.15;19.50;;;10.80;99.90;;;;;;5136953;27;20547;-68
2023/05/06 01:27:12;;;;;;;144.20;23.75;;;10.80;99.90;;;;;;5136859;27;20167;-68
2023/05/06 01:29:41;;;;;;;58.57;17.47;;;10.70;99.90;;;;;;5135618;27;20203;-68
2023/05/06 01:32:15;;;;;;;61.77;19.07;;;10.60;99.90;;;;;;5137061;27;20628;-70
2023/05/06 01:35:10;;;;;;;137.60;26.10;;;10.70;99.90;;;;;;5137080;27;20671;-69
2023/05/06 01:38:06;;;;;;;85.40;19.47;;;10.70;99.90;;;;;;5110528;27;20675;-69
2023/05/06 01:40:34;;;;;;;50.13;17.93;;;10.60;99.90;;;;;;5135838;27;20192;-69
2023/05/06 01:43:03;;;;;;;47.33;19.08;;;10.70;99.90;;;;;;5135950;27;20213;-68
2023/05/06 01:45:32;;;;;;;54.03;18.83;;;10.70;99.90;;;;;;5136746;27;20255;-68
2023/05/06 01:47:58;;;;;;;65.37;20.27;;;10.60;99.90;;;;;;5135412;27;20183;-68
2023/05/06 01:50:25;;;;;;;59.93;18.63;;;10.60;99.90;;;;;;5136660;27;20187;-68
2023/05/06 01:53:02;;;;;;;41.17;18.00;;;10.60;99.90;;;;;;5136466;27;20175;-68
2023/05/06 01:55:28;;;;;;;59.00;18.27;;;10.70;99.90;;;;;;5136523;27;20191;-68
2023/05/06 01:57:55;;;;;;;37.03;15.50;;;10.70;99.90;;;;;;5134937;27;20586;-69
2023/05/06 02:00:23;;;;;;;39.77;16.57;;;10.70;99.90;;;;;;5134897;27;20668;-68
2023/05/06 02:02:49;;;;;;;48.10;16.10;;;10.80;99.90;;;;;;5134839;27;20192;-68
2023/05/06 02:05:15;;;;;;;48.70;15.90;;;10.80;99.90;;;;;;5135015;27;20240;-68
2023/05/06 02:07:41;;;;;;;69.50;16.83;;;10.70;99.90;;;;;;5136525;27;20168;-72
2023/05/06 02:10:07;;;;;;;50.13;17.10;;;10.70;99.90;;;;;;5136119;27;20667;-72
2023/05/06 02:12:33;;;;;;;39.45;15.90;;;10.70;99.90;;;;;;5135005;27;20640;-72
2023/05/06 02:14:59;;;;;;;36.00;13.98;;;10.70;99.90;;;;;;5136120;27;20225;-72
2023/05/06 02:17:25;;;;;;;50.05;15.75;;;10.60;99.90;;;;;;5134845;27;20167;-72
2023/05/06 02:19:50;;;;;;;52.40;15.20;;;10.60;99.90;;;;;;5136194;27;20180;-72
2023/05/06 02:22:16;;;;;;;53.08;15.77;;;10.60;99.90;;;;;;5135861;27;20164;-72
2023/05/06 02:24:42;;;;;;;57.47;16.88;;;10.50;99.90;;;;;;5134486;27;20635;-72
2023/05/06 02:27:08;;;;;;;39.25;14.70;;;10.50;99.90;;;;;;5133644;27;20176;-72
2023/05/06 02:29:33;;;;;;;39.65;13.98;;;10.50;99.90;;;;;;5135784;27;20192;-72
2023/05/06 02:31:59;;;;;;;43.28;15.73;;;10.50;99.90;;;;;;5134583;27;20199;-72
2023/05/06 02:34:25;;;;;;;37.97;14.30;;;10.50;99.90;;;;;;5133268;27;20664;-69
2023/05/06 02:36:50;;;;;;;41.08;14.45;;;10.40;99.90;;;;;;5115235;28;20196;-68
2023/05/06 02:39:16;;;;;;;37.50;14.13;;;10.40;99.90;;;;;;5114940;28;20251;-72
2023/05/06 02:41:42;;;;;;;36.33;14.55;;;10.40;99.90;;;;;;5115043;28;20198;-70
2023/05/06 02:44:07;;;;;;;38.23;14.27;;;10.30;99.90;;;;;;5114996;28;20200;-72
2023/05/06 02:46:34;;;;;;;32.78;12.93;;;10.20;99.90;;;;;;5114818;28;20517;-73
2023/05/06 02:49:00;;;;;;;49.03;13.83;;;10.20;99.90;;;;;;5115619;28;20563;-68
2023/05/06 02:51:25;;;;;;;30.53;11.87;;;10.20;99.90;;;;;;5113354;28;20204;-68
2023/05/06 02:53:51;;;;;;;45.67;11.27;;;10.20;99.90;;;;;;5113154;28;20187;-68
2023/05/06 02:56:17;;;;;;;20.13;10.03;;;10.00;99.90;;;;;;5114599;28;20172;-68
2023/05/06 02:58:42;;;;;;;22.33;10.63;;;10.00;99.90;;;;;;5114343;28;20255;-68
2023/05/06 03:01:08;;;;;;;27.80;9.97;;;10.10;99.90;;;;;;5114441;28;20226;-68
2023/05/06 03:03:34;;;;;;;16.10;10.97;;;10.10;99.90;;;;;;5114470;28;20161;-68
2023/05/06 03:06:00;;;;;;;23.30;10.20;;;10.10;99.90;;;;;;5128747;27;20175;-68
2023/05/06 03:08:26;;;;;;;22.50;10.43;;;10.00;99.90;;;;;;5133704;27;20544;-68
2023/05/06 03:10:51;;;;;;;15.25;9.73;;;9.90;99.90;;;;;;5135100;27;20568;-68
2023/05/06 03:13:17;;;;;;;13.17;9.00;;;9.90;99.90;;;;;;5134625;27;20203;-68
2023/05/06 03:15:43;;;;;;;16.77;10.07;;;9.80;99.90;;;;;;5133430;27;20207;-68
2023/05/06 03:18:09;;;;;;;18.10;10.60;;;9.70;99.90;;;;;;5134817;27;20510;-68
2023/05/06 03:20:35;;;;;;;19.43;10.50;;;9.70;99.90;;;;;;5134710;27;20187;-68
2023/05/06 03:23:00;;;;;;;19.87;10.67;;;9.60;99.90;;;;;;5134714;27;20635;-68
2023/05/06 03:25:26;;;;;;;21.27;10.73;;;9.50;99.90;;;;;;5135809;27;20213;-68
2023/05/06 03:27:52;;;;;;;18.50;10.13;;;9.50;99.90;;;;;;5134463;27;20220;-68
2023/05/06 03:30:17;;;;;;;17.93;9.87;;;9.50;99.90;;;;;;5134579;27;20574;-68
2023/05/06 03:32:44;;;;;;;26.30;10.80;;;9.50;99.90;;;;;;5134611;27;20660;-68
2023/05/06 03:35:10;;;;;;;21.70;11.43;;;9.40;99.90;;;;;;5134724;27;20653;-68
2023/05/06 03:37:35;;;;;;;22.47;10.83;;;9.40;99.90;;;;;;5135099;27;20152;-71
2023/05/06 03:40:03;;;;;;;32.53;10.87;;;9.40;99.90;;;;;;5134681;27;20183;-70
2023/05/06 03:42:29;;;;;;;28.70;9.77;;;9.40;99.90;;;;;;5132975;27;20176;-70
2023/05/06 03:44:55;;;;;;;24.70;10.37;;;9.40;99.90;;;;;;5134323;27;20175;-70
2023/05/06 03:47:20;;;;;;;24.67;10.30;;;9.40;99.90;;;;;;5134764;27;20171;-70
2023/05/06 03:49:46;;;;;;;24.43;11.10;;;9.40;99.90;;;;;;5134466;27;20683;-68
2023/05/06 03:52:12;;;;;;;31.27;11.40;;;9.40;99.90;;;;;;5134794;27;20183;-70
2023/05/06 03:54:38;;;;;;;18.90;10.50;;;9.40;99.90;;;;;;5134323;27;20207;-68
2023/05/06 03:57:04;;;;;;;29.77;11.07;;;9.40;99.90;;;;;;5132903;27;20163;-69
2023/05/06 03:59:29;;;;;;;36.37;10.80;;;9.40;99.90;;;;;;5133147;28;20543;-68
2023/05/06 04:01:55;;;;;;;16.60;9.10;;;9.30;99.90;;;;;;5132844;27;20236;-68
2023/05/06 04:04:21;;;;;;;37.10;10.00;;;9.30;99.90;;;;;;5132822;28;20187;-68
2023/05/06 04:06:47;;;;;;;24.97;9.63;;;9.20;99.90;;;;;;5134788;27;20160;-68
2023/05/06 04:09:12;;;;;;;28.80;9.60;;;9.20;99.90;;;;;;5134593;27;20628;-68
2023/05/06 04:11:38;;;;;;;41.30;10.23;;;9.10;99.90;;;;;;5134168;27;20176;-68
2023/05/06 04:14:04;;;;;;;24.77;9.83;;;9.10;99.90;;;;;;5134073;27;20181;-68
2023/05/06 04:16:30;;;;;;;22.13;8.83;;;9.10;99.90;;;;;;5134618;27;20211;-68
2023/05/06 04:18:56;;;;;;;17.80;8.67;;;9.10;99.90;;;;;;5134562;27;20171;-70
2023/05/06 04:21:22;;;;;;;16.73;8.47;;;9.10;99.90;;;;;;5132593;28;20196;-70
2023/05/06 04:23:47;;;;;;;24.07;9.33;;;9.20;99.90;;;;;;5133844;28;20522;-70
2023/05/06 04:26:13;;;;;;;24.50;9.57;;;9.10;99.90;;;;;;5134400;27;20624;-70
2023/05/06 04:28:39;;;;;;;20.87;9.37;;;9.10;99.90;;;;;;5133894;27;20608;-70
2023/05/06 04:31:07;;;;;;;23.60;9.40;;;9.10;99.90;;;;;;5132611;28;20200;-72
2023/05/06 04:33:33;;;;;;;14.30;8.77;;;9.10;99.90;;;;;;5132679;28;20214;-72
2023/05/06 04:35:59;;;;;;;26.93;9.87;;;9.10;99.90;;;;;;5132656;28;20638;-72
2023/05/06 04:38:29;;;;;;;13.80;8.50;;;9.10;99.90;;;;;;5134198;27;20199;-72
2023/05/06 04:40:55;;;;;;;20.33;9.80;;;9.10;99.90;;;;;;5132891;28;20603;-72
2023/05/06 04:43:21;;;;;;;19.67;8.90;;;9.10;99.90;;;;;;5133817;27;20164;-73
2023/05/06 04:45:50;;;;;;;20.00;9.00;;;9.10;99.90;;;;;;5133861;27;20186;-72
2023/05/06 04:48:22;;;;;;;23.33;9.20;;;9.20;99.90;;;;;;5132547;27;20672;-72
2023/05/06 04:50:49;;;;;;;14.73;8.93;;;9.10;99.90;;;;;;5136806;27;20599;-72
2023/05/06 04:53:15;;;;;;;12.63;9.33;;;9.10;99.90;;;;;;5137620;27;20179;-72
2023/05/06 04:55:41;;;;;;;15.07;9.73;;;9.10;99.90;;;;;;5137613;27;20286;-72
2023/05/06 04:58:06;;;;;;;22.87;9.03;;;9.10;99.90;;;;;;5136077;27;20175;-72
2023/05/06 05:00:33;;;;;;;25.77;9.73;;;9.10;99.90;;;;;;5137580;27;20673;-73
2023/05/06 05:02:58;;;;;;;16.80;9.57;;;9.00;99.90;;;;;;5137256;27;20194;-72
2023/05/06 05:05:27;;;;;;;18.67;10.53;;;9.00;99.90;;;;;;5137322;27;20183;-72
2023/05/06 05:07:54;;;;;;;18.13;10.33;;;9.10;99.90;;;;;;5137287;27;20188;-70
2023/05/06 05:10:20;;;;;;;15.33;10.93;;;9.10;99.90;;;;;;5137147;27;20214;-70
2023/05/06 05:12:46;;;;;;;13.63;9.60;;;9.10;99.90;;;;;;5135757;27;20188;-70
2023/05/06 05:15:12;;;;;;;30.95;11.75;;;9.30;99.90;;;;;;5137349;27;20206;-70
2023/05/06 05:17:38;;;;;;;30.00;12.97;;;9.30;99.90;;;;;;5135771;27;20595;-70
2023/05/06 05:20:04;;;;;;;39.87;22.63;;;9.30;99.90;;;;;;5137569;27;20237;-70
2023/05/06 05:22:30;;;;;;;44.83;24.97;;;9.30;99.90;;;;;;5136043;27;20175;-70
2023/05/06 05:24:56;;;;;;;44.00;25.93;;;9.30;99.90;;;;;;5137354;27;20220;-71
2023/05/06 05:27:22;;;;;;;37.07;24.33;;;9.30;99.90;;;;;;5136814;27;20179;-71
2023/05/06 05:29:48;;;;;;;45.33;29.00;;;9.40;99.90;;;;;;5137176;27;20203;-70
2023/05/06 05:32:15;;;;;;;49.17;31.03;;;9.50;99.90;;;;;;5137345;27;20537;-70
2023/05/06 05:34:41;;;;;;;44.23;30.60;;;9.60;99.90;;;;;;5133916;27;20256;-70
2023/05/06 05:37:07;;;;;;;36.57;24.27;;;9.60;99.90;;;;;;5116286;28;20254;-71
2023/05/06 05:39:32;;;;;;;22.40;16.60;;;9.70;99.90;;;;;;5116233;28;20200;-70
2023/05/06 05:41:58;;;;;;;18.67;12.53;;;9.70;99.90;;;;;;5116160;28;20682;-70
2023/05/06 05:44:24;;;;;;;19.50;14.43;;;9.80;99.90;;;;;;5115943;28;20259;-68
2023/05/06 05:46:50;;;;;;;20.27;13.63;;;9.90;99.90;;;;;;5116577;28;20180;-68
2023/05/06 05:49:15;;;;;;;17.80;12.40;;;9.90;99.90;;;;;;5114662;28;20184;-70
2023/05/06 05:51:41;;;;;;;21.27;15.88;;;9.90;99.90;;;;;;5114713;28;20640;-72
2023/05/06 05:54:07;;;;;;;20.50;14.93;;;10.10;99.90;;;;;;5114652;28;20184;-72
2023/05/06 05:56:33;;;;;;;17.65;13.18;;;10.10;99.90;;;;;;5114545;28;20187;-68
2023/05/06 05:58:59;;;;;;;17.73;12.43;;;10.10;99.90;;;;;;5115582;27;20173;-70
2023/05/06 06:01:25;;;;;;;18.13;12.45;;;10.20;99.90;;;;;;5114386;28;20260;-70
2023/05/06 06:03:52;;;;;;;16.23;11.40;;;10.20;99.90;;;;;;5116182;28;20256;-70
2023/05/06 06:06:18;;;;;;;16.13;11.68;;;10.30;99.90;;;;;;5131243;27;20660;-70
2023/05/06 06:08:44;;;;;;;16.25;11.35;;;10.30;99.90;;;;;;5134791;27;20183;-70
2023/05/06 06:11:10;;;;;;;17.33;12.40;;;10.30;99.90;;;;;;5135956;27;20195;-72
2023/05/06 06:13:36;;;;;;;15.80;11.38;;;10.50;99.90;;;;;;5134631;27;20179;-69
2023/05/06 06:16:03;;;;;;;15.73;12.00;;;10.60;99.90;;;;;;5136193;27;20210;-68
2023/05/06 06:18:28;;;;;;;15.98;10.95;;;10.70;99.90;;;;;;5135746;27;20187;-68
2023/05/06 06:20:54;;;;;;;16.70;12.18;;;10.80;99.90;;;;;;5134954;27;20195;-72
2023/05/06 06:23:20;;;;;;;17.95;11.73;;;10.80;99.90;;;;;;5134521;27;20183;-70
2023/05/06 06:25:46;;;;;;;17.58;11.70;;;10.80;99.90;;;;;;5135722;27;20252;-70
2023/05/06 06:28:12;;;;;;;15.57;11.88;;;10.90;99.90;;;;;;5135762;27;20199;-70
2023/05/06 06:30:37;;;;;;;16.65;11.63;;;11.00;99.90;;;;;;5135536;27;20287;-70
2023/05/06 06:33:03;;;;;;;17.83;12.73;;;11.00;99.90;;;;;;5136146;27;20647;-70
2023/05/06 06:35:29;;;;;;;15.40;10.93;;;11.10;99.90;;;;;;5135914;27;20218;-70
2023/05/06 06:37:55;;;;;;;16.60;11.23;;;11.20;99.90;;;;;;5136112;27;20576;-70
2023/05/06 06:40:21;;;;;;;16.80;11.65;;;11.40;99.90;;;;;;5135496;27;20279;-70
2023/05/06 06:42:47;;;;;;;17.00;12.23;;;11.50;99.90;;;;;;5134083;27;20552;-71
2023/05/06 06:45:13;;;;;;;17.58;11.93;;;11.60;99.90;;;;;;5135318;27;20179;-70
2023/05/06 06:47:39;;;;;;;14.45;10.68;;;11.70;99.90;;;;;;5135606;27;20156;-70
2023/05/06 06:50:07;;;;;;;16.80;12.00;;;11.80;99.90;;;;;;5135227;27;20716;-70
2023/05/06 06:52:36;;;;;;;15.30;11.05;;;11.80;99.90;;;;;;5135205;27;20172;-70
2023/05/06 06:55:02;;;;;;;16.48;11.70;;;11.90;99.90;;;;;;5133896;27;20735;-70
2023/05/06 06:57:28;;;;;;;16.38;12.10;;;12.00;99.90;;;;;;5134963;27;20250;-70
2023/05/06 06:59:54;;;;;;;15.27;10.82;;;12.00;99.90;;;;;;5135566;27;20179;-71
2023/05/06 07:02:21;;;;;;;18.60;12.55;;;12.20;99.90;;;;;;5135091;27;20240;-70
2023/05/06 07:04:46;;;;;;;16.65;12.05;;;12.30;99.90;;;;;;5135452;27;20175;-70
2023/05/06 07:07:12;;;;;;;15.50;11.88;;;12.40;99.90;;;;;;5134918;27;20221;-70
2023/05/06 07:09:38;;;;;;;16.33;11.38;;;12.40;99.90;;;;;;5134306;27;20680;-72
2023/05/06 07:12:05;;;;;;;13.25;10.23;;;12.50;99.90;;;;;;5135273;27;20222;-71
2023/05/06 07:14:31;;;;;;;17.85;12.80;;;12.70;99.90;;;;;;5134857;27;20195;-71
2023/05/06 07:16:59;;;;;;;17.80;12.20;;;12.80;99.90;;;;;;5135285;27;20172;-70
2023/05/06 07:19:25;;;;;;;18.65;12.57;;;12.90;99.90;;;;;;5133673;27;20172;-70
2023/05/06 07:21:51;;;;;;;19.00;13.15;;;13.00;99.90;;;;;;5133743;27;20179;-70
2023/05/06 07:24:17;;;;;;;21.90;14.27;;;13.00;99.90;;;;;;5135239;27;20168;-70
2023/05/06 07:26:43;;;;;;;20.40;13.00;;;13.10;99.90;;;;;;5134592;27;20167;-70
2023/05/06 07:29:08;;;;;;;18.77;11.93;;;13.20;99.90;;;;;;5135511;27;20254;-70
2023/05/06 07:31:34;;;;;;;15.20;11.55;;;13.20;99.90;;;;;;5135615;27;20172;-71
2023/05/06 07:34:00;;;;;;;20.52;12.45;;;13.40;99.90;;;;;;5135092;27;20164;-77
2023/05/06 07:36:27;;;;;;;20.48;12.98;;;13.30;99.90;;;;;;5135247;27;20178;-75
2023/05/06 07:38:53;;;;;;;18.45;12.20;;;13.40;99.90;;;;;;5133323;27;20199;-75
2023/05/06 07:41:19;;;;;;;17.30;11.82;;;13.50;99.90;;;;;;5133481;27;20230;-70
2023/05/06 07:43:45;;;;;;;19.50;12.13;;;13.60;99.90;;;;;;5134238;27;20166;-70
2023/05/06 07:46:11;;;;;;;16.55;11.85;;;13.80;99.90;;;;;;5134498;27;20171;-70
2023/05/06 07:48:37;;;;;;;14.27;10.50;;;13.90;99.90;;;;;;5134847;27;20529;-72
2023/05/06 07:51:03;;;;;;;19.35;13.20;;;14.00;99.90;;;;;;5134335;27;20191;-72
2023/05/06 07:53:29;;;;;;;17.27;12.95;;;14.20;99.90;;;;;;5133233;28;20172;-72
2023/05/06 07:56:00;;;;;;;18.08;12.68;;;14.40;99.90;;;;;;5134392;27;20611;-72
2023/05/06 07:58:27;;;;;;;18.35;12.57;;;14.40;99.90;;;;;;5132998;27;20167;-72
2023/05/06 08:00:53;;;;;;;16.15;12.05;;;14.50;99.90;;;;;;5133042;27;20195;-72
2023/05/06 08:03:19;;;;;;;16.67;12.45;;;14.60;99.90;;;;;;5134953;27;20160;-72
2023/05/06 08:05:45;;;;;;;17.02;12.68;;;14.70;99.90;;;;;;5132947;27;20187;-72
2023/05/06 08:08:10;;;;;;;16.88;12.02;;;14.90;99.90;;;;;;5134922;27;20244;-72
2023/05/06 08:10:36;;;;;;;16.98;11.85;;;15.10;99.90;;;;;;5134514;27;20262;-72
2023/05/06 08:13:02;;;;;;;16.27;11.98;;;15.20;99.90;;;;;;5134618;28;20191;-72
2023/05/06 08:15:28;;;;;;;13.77;10.38;;;15.30;99.90;;;;;;5134330;27;20200;-72
2023/05/06 08:17:54;;;;;;;13.93;10.70;;;15.40;99.90;;;;;;5134190;27;20171;-72
2023/05/06 08:20:20;;;;;;;17.50;12.02;;;15.60;99.90;;;;;;5134135;27;20270;-71
2023/05/06 08:22:46;;;;;;;15.70;10.68;;;15.90;99.90;;;;;;5134096;27;20593;-72
2023/05/06 08:25:11;;;;;;;14.70;9.70;;;16.30;99.90;;;;;;5137888;27;20502;-72
2023/05/06 08:27:38;;;;;;;13.35;8.40;;;17.10;99.90;;;;;;5138266;27;20168;-72
2023/05/06 08:30:04;;;;;;;13.38;8.90;;;18.20;99.90;;;;;;5138205;27;20279;-72
2023/05/06 08:32:30;;;;;;;11.40;8.68;;;19.00;99.90;;;;;;5136839;27;20734;-72
2023/05/06 08:34:56;;;;;;;13.70;8.88;;;19.50;99.90;;;;;;5137822;27;20290;-72
2023/05/06 08:37:21;;;;;;;9.80;7.70;;;19.90;99.90;;;;;;5137919;27;20240;-72
2023/05/06 08:39:47;;;;;;;11.45;7.15;;;20.20;52.90;;;;;;5136765;27;20219;-72
2023/05/06 08:42:13;;;;;;;8.38;6.50;;;20.60;1.00;;;;;;5136675;27;20180;-72
2023/05/06 08:44:39;;;;;;;8.82;7.13;;;21.00;1.00;;;;;;5138467;27;20223;-72
2023/05/06 08:47:05;;;;;;;11.80;7.88;;;21.70;46.20;;;;;;5138647;27;20206;-72
2023/05/06 08:49:31;;;;;;;12.75;7.78;;;21.90;1.00;;;;;;5137916;27;20280;-72
2023/05/06 08:51:57;;;;;;;11.55;6.90;;;22.00;1.00;;;;;;5136400;27;20236;-72
2023/05/06 08:54:25;;;;;;;10.45;6.80;;;22.10;1.00;;;;;;5137462;27;20204;-72
2023/05/06 08:56:56;;;;;;;9.88;7.70;;;22.10;1.00;;;;;;5137649;27;20640;-72
2023/05/06 08:59:29;;;;;;;10.80;7.43;;;22.30;1.00;;;;;;5135989;27;20652;-72
2023/05/06 09:01:55;;;;;;;13.07;7.22;;;22.50;99.90;;;;;;5136003;27;20270;-72
2023/05/06 09:04:21;;;;;;;9.07;6.50;;;22.50;1.00;;;;;;5135973;27;20224;-71
2023/05/06 09:06:46;;;;;;;8.32;6.75;;;22.40;1.00;;;;;;5137331;27;20168;-73
2023/05/06 09:09:13;;;;;;;9.20;7.28;;;22.30;1.00;;;;;;5137952;27;20172;-72
2023/05/06 09:11:40;;;;;;;12.05;7.18;;;22.40;1.00;;;;;;5137447;27;20159;-73
2023/05/06 09:14:16;;;;;;;9.75;6.43;;;21.90;99.90;;;;;;5137361;27;20213;-73
2023/05/06 09:16:49;;;;;;;8.85;6.30;;;22.20;1.00;;;;;;5138129;27;20217;-73
2023/05/06 09:19:16;;;;;;;10.95;6.97;;;22.70;1.00;;;;;;5136184;27;20179;-72
2023/05/06 09:21:44;;;;;;;9.63;6.30;;;22.70;99.90;;;;;;5137364;27;20176;-73
2023/05/06 09:24:12;;;;;;;8.80;6.07;;;22.90;99.90;;;;;;5136156;27;20219;-73
2023/05/06 09:26:39;;;;;;;9.18;6.25;;;23.60;1.00;;;;;;5137685;27;20225;-73
2023/05/06 09:29:05;;;;;;;6.85;5.25;;;23.60;1.00;;;;;;5137096;27;20164;-73
2023/05/06 09:31:32;;;;;;;11.43;5.32;;;23.70;99.90;;;;;;5135740;27;20286;-73
2023/05/06 09:33:59;;;;;;;7.15;5.10;;;23.80;1.00;;;;;;5136931;27;20168;-72
2023/05/06 09:36:27;;;;;;;7.82;4.90;;;24.00;1.00;;;;;;5135362;27;20676;-73
2023/05/06 09:38:54;;;;;;;8.70;4.97;;;23.80;1.00;;;;;;5135285;27;20179;-73
2023/05/06 09:41:24;;;;;;;6.45;4.53;;;23.80;40.10;;;;;;5135391;27;20199;-72
2023/05/06 09:43:51;;;;;;;7.68;4.50;;;23.70;1.00;;;;;;5135180;27;20256;-72
2023/05/06 09:46:18;;;;;;;7.85;4.90;;;23.40;99.90;;;;;;5136552;27;20570;-69
2023/05/06 09:48:46;;;;;;;8.02;5.10;;;23.20;99.90;;;;;;5137341;27;20496;-73
2023/05/06 09:51:12;;;;;;;6.75;4.10;;;23.10;1.00;;;;;;5136240;27;20215;-72
2023/05/06 09:53:38;;;;;;;7.45;4.57;;;23.40;99.90;;;;;;5135060;27;20183;-72
2023/05/06 09:56:07;;;;;;;8.32;4.97;;;23.60;1.00;;;;;;5136239;27;20200;-73
2023/05/06 09:58:34;;;;;;;6.00;4.13;;;23.70;1.00;;;;;;5134855;27;20663;-73
2023/05/06 10:01:02;;;;;;;7.72;4.50;;;24.00;1.00;;;;;;5136338;27;20736;-73
2023/05/06 10:03:29;;;;;;;7.88;4.40;;;24.50;99.90;;;;;;5136489;27;20180;-73
2023/05/06 10:06:01;;;;;;;10.50;4.78;;;24.40;99.90;;;;;;5136146;27;20292;-73
2023/05/06 10:08:27;;;;;;;7.90;5.13;;;24.10;1.00;;;;;;5134972;27;20179;-73
2023/05/06 10:10:53;;;;;;;6.65;4.07;;;23.40;99.90;;;;;;5134642;27;20660;-73
2023/05/06 10:13:20;;;;;;;7.05;4.43;;;23.50;1.00;;;;;;5136008;27;20184;-72
2023/05/06 10:15:48;;;;;;;5.43;3.78;;;23.60;1.00;;;;;;5134649;27;20207;-73
2023/05/06 10:18:16;;;;;;;7.93;4.57;;;23.70;1.00;;;;;;5134673;27;20190;-73
2023/05/06 10:20:43;;;;;;;8.90;5.07;;;23.50;1.00;;;;;;5135806;27;20200;-73
2023/05/06 10:23:20;;;;;;;8.50;5.68;;;23.20;1.00;;;;;;5136277;27;20162;-73
2023/05/06 10:25:50;;;;;;;9.48;4.72;;;23.10;1.00;;;;;;5134453;27;20175;-73
2023/05/06 10:28:19;;;;;;;6.53;4.25;;;22.80;99.90;;;;;;5135700;27;20636;-73
2023/05/06 10:30:46;;;;;;;6.80;4.30;;;23.00;99.90;;;;;;5135593;27;20244;-73
2023/05/06 10:33:14;;;;;;;8.18;4.90;;;22.70;1.00;;;;;;5134439;27;20180;-73
2023/05/06 10:35:43;;;;;;;6.22;4.05;;;22.10;99.90;;;;;;5134085;27;20256;-73
2023/05/06 10:38:23;;;;;;;9.60;5.13;;;21.90;99.90;;;;;;5135525;27;20176;-73
2023/05/06 10:40:51;;;;;;;9.10;5.10;;;21.90;99.90;;;;;;5135536;27;20622;-73
2023/05/06 10:43:23;;;;;;;7.18;4.38;;;21.70;1.00;;;;;;5136449;27;20172;-68
2023/05/06 10:46:02;;;;;;;6.38;4.55;;;21.60;99.90;;;;;;5136320;27;20190;-69
2023/05/06 10:48:28;;;;;;;6.43;4.18;;;21.60;99.90;;;;;;5135573;27;20172;-72
2023/05/06 10:51:16;;;;;;;7.43;4.30;;;21.90;1.00;;;;;;5135588;27;20202;-69
2023/05/06 10:54:02;;;;;;;4.82;3.50;;;22.00;1.00;;;;;;5134546;27;20172;-69
2023/05/06 10:56:30;;;;;;;5.88;3.83;;;22.10;99.90;;;;;;5137026;27;20194;-68
2023/05/06 10:59:07;;;;;;;5.75;3.70;;;21.90;99.90;;;;;;5133608;27;20263;-68
2023/05/06 11:01:35;;;;;;;4.72;3.75;;;22.00;1.00;;;;;;5135494;27;20207;-71
2023/05/06 11:04:13;;;;;;;8.98;4.18;;;22.00;99.90;;;;;;5136119;27;20247;-73
2023/05/06 11:06:46;;;;;;;6.20;3.83;;;22.00;99.90;;;;;;5117810;27;20180;-70
2023/05/06 11:09:26;;;;;;;5.45;3.20;;;22.00;99.90;;;;;;5117480;28;20161;-71
2023/05/06 11:12:02;;;;;;;3.65;2.72;;;22.00;1.00;;;;;;5117154;28;20176;-72
2023/05/06 11:14:34;;;;;;;5.05;3.40;;;22.10;99.90;;;;;;5113703;28;20314;-72
2023/05/06 11:17:05;;;;;;;5.40;3.05;;;22.30;1.00;;;;;;5118060;28;20266;-68
2023/05/06 11:19:34;;;;;;;5.65;2.88;;;22.60;1.00;;;;;;5115010;28;20189;-68
2023/05/06 11:22:01;;;;;;;5.18;2.65;;;22.80;1.00;;;;;;5114730;28;20169;-72
2023/05/06 11:24:29;;;;;;;4.55;2.85;;;22.70;1.00;;;;;;5113951;28;20180;-73
2023/05/06 11:26:57;;;;;;;4.38;3.38;;;22.70;99.90;;;;;;5113238;28;20220;-69
2023/05/06 11:29:23;;;;;;;3.65;2.90;;;22.60;99.90;;;;;;5113036;28;20164;-69
2023/05/06 11:31:50;;;;;;;4.35;2.97;;;22.50;99.90;;;;;;5113994;28;20199;-69
2023/05/06 11:34:41;;;;;;;4.22;2.78;;;22.30;99.90;;;;;;5114016;28;20167;-69
2023/05/06 11:37:08;;;;;;;4.55;2.42;;;21.80;1.00;;;;;;5112427;27;20195;-69
2023/05/06 11:39:35;;;;;;;3.42;2.50;;;22.00;41.60;;;;;;5114068;28;20185;-69
2023/05/06 11:42:05;;;;;;;3.30;2.25;;;22.00;1.00;;;;;;5112673;28;20181;-69
2023/05/06 11:44:34;;;;;;;3.55;2.80;;;22.00;1.00;;;;;;5113748;28;20153;-69
2023/05/06 11:47:04;;;;;;;4.80;2.60;;;21.80;99.90;;;;;;5114006;28;20168;-69
2023/05/06 11:49:42;;;;;;;3.47;2.60;;;21.60;99.90;;;;;;5114014;28;20199;-69
2023/05/06 11:52:09;;;;;;;3.83;2.70;;;21.40;1.00;;;;;;5114146;28;20161;-69
2023/05/06 11:54:39;;;;;;;6.03;2.50;;;21.30;1.00;;;;;;5113781;28;20191;-69
2023/05/06 11:57:06;;;;;;;5.07;2.97;;;21.10;1.00;;;;;;5113780;28;20576;-69
2023/05/06 11:59:34;;;;;;;5.82;3.67;;;20.90;1.00;;;;;;5114400;28;20675;-69
2023/05/06 12:02:05;;;;;;;4.13;2.78;;;20.80;1.00;;;;;;5116658;28;20723;-69
2023/05/06 12:04:37;;;;;;;7.20;3.30;;;20.80;99.90;;;;;;5117837;28;20252;-69
2023/05/06 12:07:04;;;;;;;4.95;2.85;;;20.90;99.90;;;;;;5116631;28;20668;-69
2023/05/06 12:09:31;;;;;;;6.80;2.80;;;21.10;99.90;;;;;;5118118;28;20238;-69
2023/05/06 12:11:57;;;;;;;5.18;2.80;;;21.70;99.90;;;;;;5117976;28;20520;-69
2023/05/06 12:14:23;;;;;;;4.20;2.67;;;22.00;1.00;;;;;;5116416;28;20184;-69
2023/05/06 12:16:49;;;;;;;4.60;2.40;;;22.60;1.00;;;;;;5116592;28;20653;-69
2023/05/06 12:19:16;;;;;;;5.70;2.60;;;23.30;99.90;;;;;;5117802;28;20539;-69
2023/05/06 12:21:42;;;;;;;2.95;2.03;;;24.00;61.50;;;;;;5116811;28;20173;-69
2023/05/06 12:24:08;;;;;;;2.95;2.35;;;24.10;1.00;;;;;;5118178;28;20164;-69
2023/05/06 12:26:48;;;;;;;5.13;2.40;;;24.60;1.00;;;;;;5117345;28;20648;-69
2023/05/06 12:29:17;;;;;;;2.63;2.28;;;24.70;1.00;;;;;;5118448;28;20160;-70
2023/05/06 12:31:46;;;;;;;3.22;2.10;;;24.30;1.00;;;;;;5118617;28;20176;-69
2023/05/06 12:34:14;;;;;;;2.42;1.83;;;24.30;1.00;;;;;;5118475;28;20165;-70
2023/05/06 12:36:42;;;;;;;4.82;2.40;;;24.20;1.00;;;;;;5117718;28;20234;-69
2023/05/06 12:39:08;;;;;;;3.45;2.20;;;24.00;1.00;;;;;;5116451;28;20688;-69